Young Endeavour — VMGW — position and weather

sailwx.info

Track history (hours):
 
Tides and Currents Weather Stations Pressure Air Temp Water Temp Dewpoint Dewpoint Depression Visibility Wind Speed Wind Dir Waves Ship Positions

Young Endeavour (Australia)

Ship's website: http://www.youngendeavour.gov.au/

Last reported at 2019-Jul-26 11:49 UTC. Time now 2019-Aug-20 09:36 UTC.
Position S 33°06' E 152°04'.
Warning: this ship's position is 24 days out of date.

Length 44 m; beam 7.8 m; draft 4 m.

Type: Other ship. MMSI: 503000136.

Date/timePositionNaut miles runAvg speedWind from/ knotsBaromVisibWave heightAir tempDewpointWater temp
2019-Jul-26 11:49S 33°06' E 152°04'2 5.8
2019-Jul-26 11:29S 33°05' E 152°05'3 5.7
2019-Jul-26 10:58S 33°03' E 152°08'2 4.8
2019-Jul-26 10:29S 33°01' E 152°09'2 5.0
2019-Jul-26 10:00S 32°59' E 152°11'3 5.0
2019-Jul-26 09:30S 32°56' E 152°12'2 4.7
2019-Jul-26 09:00S 32°54' E 152°13'3 5.2
2019-Jul-26 08:31S 32°52' E 152°13'3 5.2
2019-Jul-26 08:01S 32°49' E 152°13'3 5.2
2019-Jul-26 07:31S 32°46' E 152°13'3 5.3
2019-Jul-26 07:01S 32°44' E 152°13'2 4.4
2019-Jul-26 06:30S 32°42' E 152°11'1 1.7
2019-Jul-26 06:00S 32°43' E 152°10'0 0.0
2019-Jul-26 05:30S 32°43' E 152°10'0 0.0
2019-Jul-26 05:00S 32°43' E 152°10'0 0.0
2019-Jul-26 04:30S 32°43' E 152°10'0 0.1
2019-Jul-26 04:00S 32°43' E 152°10'0 0.0
2019-Jul-26 03:30S 32°43' E 152°10'0 0.1
2019-Jul-26 03:00S 32°43' E 152°10'0 0.0
2019-Jul-26 02:00S 32°43' E 152°10'0 0.0
2019-Jul-26 01:27S 32°43' E 152°10'0 0.0
2019-Jul-26 01:00S 32°43' E 152°10'0 0.1
2019-Jul-26 00:31S 32°43' E 152°10'0 0.1
2019-Jul-26 00:01S 32°43' E 152°10'0 0.0
2019-Jul-25 23:31S 32°43' E 152°10'0 0.0
2019-Jul-25 23:00S 32°43' E 152°10'1 2.1
2019-Jul-25 22:28S 32°43' E 152°09'0 0.0
2019-Jul-25 21:58S 32°43' E 152°09'0 0.0
2019-Jul-25 21:28S 32°43' E 152°09'0 0.0
2019-Jul-25 20:58S 32°43' E 152°09'0 0.0
2019-Jul-25 20:28S 32°43' E 152°09'0 0.0
2019-Jul-25 19:58S 32°43' E 152°09'0 0.0
2019-Jul-25 19:28S 32°43' E 152°09'0 0.0
2019-Jul-25 18:58S 32°43' E 152°09'0 0.0
2019-Jul-25 18:28S 32°43' E 152°09'0 0.0
2019-Jul-25 17:58S 32°43' E 152°09'0 0.1
2019-Jul-25 17:28S 32°43' E 152°09'0 0.0
2019-Jul-25 16:58S 32°43' E 152°09'0 0.0
2019-Jul-25 16:28S 32°43' E 152°09'0 0.0
2019-Jul-25 15:58S 32°43' E 152°09'0 0.0
2019-Jul-25 15:28S 32°43' E 152°09'0 0.0
2019-Jul-25 14:58S 32°43' E 152°09'0 0.0
2019-Jul-25 14:28S 32°43' E 152°09'0 0.0
2019-Jul-25 13:58S 32°43' E 152°09'0 0.0
2019-Jul-25 13:28S 32°43' E 152°09'0 0.0
2019-Jul-25 12:58S 32°43' E 152°09'0 0.0
2019-Jul-25 12:28S 32°43' E 152°09'0 0.0
2019-Jul-25 11:58S 32°43' E 152°09'0 0.0
2019-Jul-25 11:28S 32°43' E 152°09'0 0.1
2019-Jul-25 10:55S 32°43' E 152°09'0 0.0
2019-Jul-25 10:28S 32°43' E 152°09'0 0.0
2019-Jul-25 10:00S 32°43' E 152°09'0 0.0
2019-Jul-25 09:30S 32°43' E 152°09'0 0.0
2019-Jul-25 09:00S 32°43' E 152°09'0 0.0
2019-Jul-25 08:30S 32°43' E 152°09'2 4.5
2019-Jul-25 08:00S 32°42' E 152°11'3 6.8
2019-Jul-25 07:30S 32°41' E 152°15'4 7.4
2019-Jul-25 07:00S 32°40' E 152°19'4 7.1
2019-Jul-25 06:30S 32°38' E 152°23'4 7.5
2019-Jul-25 06:00S 32°35' E 152°26'4 7.0
2019-Jul-25 05:26S 32°33' E 152°29'231 6.7
2019-Jul-23 18:40S 28°51' E 153°44'2 9.2
2019-Jul-23 18:30S 28°49' E 153°44'5 8.9
2019-Jul-23 17:54S 28°44' E 153°45'4 8.6
2019-Jul-23 17:26S 28°40' E 153°45'48 8.2
2019-Jul-23 11:32S 27°51' E 153°47'1 8.8
2019-Jul-23 11:28S 27°51' E 153°46'4 8.3
2019-Jul-23 11:00S 27°47' E 153°45'4 8.3
2019-Jul-23 10:30S 27°44' E 153°43'4 8.2
2019-Jul-23 10:00S 27°40' E 153°41'4 8.7
2019-Jul-23 09:30S 27°35' E 153°41'5 9.8
2019-Jul-23 09:00S 27°31' E 153°40'5 9.5
2019-Jul-23 08:30S 27°26' E 153°39'5 9.5
2019-Jul-23 08:00S 27°22' E 153°37'5 9.3
2019-Jul-23 07:30S 27°17' E 153°35'4 9.0
2019-Jul-23 07:00S 27°13' E 153°33'4 8.9
2019-Jul-23 06:30S 27°09' E 153°31'4 8.7
2019-Jul-23 06:01S 27°05' E 153°30'4 7.9
2019-Jul-23 05:27S 27°01' E 153°28'7 3.6
2019-Jul-23 03:38S 27°04' E 153°22'1 6.7
2019-Jul-23 03:30S 27°05' E 153°22'3 6.5
2019-Jul-23 03:00S 27°09' E 153°21'2 2.3
2019-Jul-23 01:58S 27°11' E 153°22'0 0.0
2019-Jul-23 01:16S 27°11' E 153°22'0 0.0
2019-Jul-23 00:58S 27°11' E 153°22'0 0.1
2019-Jul-23 00:28S 27°11' E 153°22'0 0.1
2019-Jul-22 23:58S 27°11' E 153°22'0 0.0
2019-Jul-22 23:25S 27°11' E 153°22'0 0.1
2019-Jul-22 22:52S 27°11' E 153°22'0 0.0
2019-Jul-22 22:16S 27°11' E 153°22'0 0.2
2019-Jul-22 21:58S 27°11' E 153°22'0 0.0
2019-Jul-22 21:28S 27°11' E 153°22'0 0.0
2019-Jul-22 20:58S 27°11' E 153°22'0 0.0
2019-Jul-22 20:28S 27°11' E 153°22'0 0.0
2019-Jul-22 19:58S 27°11' E 153°22'0 0.1
2019-Jul-22 19:28S 27°11' E 153°22'0 0.0
2019-Jul-22 18:58S 27°11' E 153°22'0 0.0
2019-Jul-22 18:28S 27°11' E 153°22'0 0.0
2019-Jul-22 17:55S 27°11' E 153°22'0 0.1
2019-Jul-22 17:28S 27°11' E 153°22'0 0.0
2019-Jul-22 16:58S 27°11' E 153°22'0 0.0
2019-Jul-22 16:28S 27°11' E 153°22'0 0.0
2019-Jul-22 15:58S 27°11' E 153°22'0 0.0
2019-Jul-22 15:28S 27°11' E 153°22'0 0.1
2019-Jul-22 14:58S 27°11' E 153°22'0 0.0
2019-Jul-22 14:28S 27°11' E 153°22'0 0.1
2019-Jul-22 13:49S 27°11' E 153°22'0 0.0
2019-Jul-22 13:28S 27°11' E 153°22'0 0.0
2019-Jul-22 12:58S 27°11' E 153°22'0 0.0
2019-Jul-22 12:28S 27°11' E 153°22'0 0.0
2019-Jul-22 11:58S 27°11' E 153°22'0 0.0
2019-Jul-22 11:28S 27°11' E 153°22'0 0.0
2019-Jul-22 11:01S 27°11' E 153°22'0 0.0
2019-Jul-22 10:31S 27°11' E 153°22'0 0.0
2019-Jul-22 10:01S 27°11' E 153°22'1 2.9
2019-Jul-22 09:30S 27°12' E 153°21'3 5.2
2019-Jul-22 09:01S 27°14' E 153°20'3 6.8
2019-Jul-22 08:31S 27°16' E 153°17'3 6.8
2019-Jul-22 08:01S 27°18' E 153°13'4 7.1
2019-Jul-22 07:31S 27°21' E 153°11'3 6.5
2019-Jul-22 07:01S 27°23' E 153°09'3 6.2
2019-Jul-22 06:30S 27°26' E 153°07'3 5.6
2019-Jul-22 06:00S 27°27' E 153°04'0 0.1
2019-Jul-22 05:29S 27°27' E 153°04'0 0.0
2019-Jul-22 04:59S 27°27' E 153°04'0 0.0
2019-Jul-22 04:29S 27°27' E 153°04'0 0.0
2019-Jul-22 03:59S 27°27' E 153°04'0 0.0
2019-Jul-22 03:29S 27°27' E 153°04'0 0.0
2019-Jul-22 02:59S 27°27' E 153°04'0 0.0
2019-Jul-22 02:29S 27°27' E 153°04'0 0.0
2019-Jul-22 01:59S 27°27' E 153°04'0 0.0
2019-Jul-22 01:29S 27°27' E 153°04'0 0.0
2019-Jul-22 00:59S 27°27' E 153°04'0 0.0
2019-Jul-22 00:29S 27°27' E 153°04'0 0.0
2019-Jul-21 23:59S 27°27' E 153°04'0 0.0
2019-Jul-21 23:29S 27°27' E 153°04'0 0.0
2019-Jul-21 22:59S 27°27' E 153°04'0 0.0
2019-Jul-21 22:29S 27°27' E 153°04'0 0.0
2019-Jul-21 21:59S 27°27' E 153°04'0 0.0
2019-Jul-21 21:29S 27°27' E 153°04'0 0.0
2019-Jul-21 20:59S 27°27' E 153°04'0 0.0
2019-Jul-21 20:29S 27°27' E 153°04'0 0.0
2019-Jul-21 19:59S 27°27' E 153°04'0 0.0
2019-Jul-21 19:29S 27°27' E 153°04'0 0.0
2019-Jul-21 18:59S 27°27' E 153°04'0 0.0
2019-Jul-21 18:29S 27°27' E 153°04'0 0.0
2019-Jul-21 17:59S 27°27' E 153°04'0 0.0
2019-Jul-21 17:29S 27°27' E 153°04'0 0.0
2019-Jul-21 16:59S 27°27' E 153°04'0 0.0
2019-Jul-21 16:29S 27°27' E 153°04'0 0.0
2019-Jul-21 15:59S 27°27' E 153°04'0 0.0
2019-Jul-21 15:29S 27°27' E 153°04'0 0.0
2019-Jul-21 14:59S 27°27' E 153°04'0 0.0
2019-Jul-21 14:29S 27°27' E 153°04'0 0.0
2019-Jul-21 13:59S 27°27' E 153°04'0 0.0
2019-Jul-21 13:29S 27°27' E 153°04'0 0.0
2019-Jul-21 12:59S 27°27' E 153°04'0 0.0
2019-Jul-21 12:29S 27°27' E 153°04'0 0.0
2019-Jul-21 11:59S 27°27' E 153°04'0 0.0
2019-Jul-21 11:29S 27°27' E 153°04'0 0.0
2019-Jul-21 10:59S 27°27' E 153°04'0 0.0
2019-Jul-21 10:29S 27°27' E 153°04'0 0.0
2019-Jul-21 09:59S 27°27' E 153°04'0 0.0
2019-Jul-21 09:29S 27°27' E 153°04'0 0.0
2019-Jul-21 08:59S 27°27' E 153°04'0 0.0
2019-Jul-21 08:29S 27°27' E 153°04'0 0.0
2019-Jul-21 07:59S 27°27' E 153°04'0 0.0
2019-Jul-21 07:29S 27°27' E 153°04'0 0.0
2019-Jul-21 06:59S 27°27' E 153°04'0 0.0
2019-Jul-21 06:29S 27°27' E 153°04'0 0.0
2019-Jul-21 05:59S 27°27' E 153°04'0 0.0
2019-Jul-21 05:29S 27°27' E 153°04'0 0.0
2019-Jul-21 04:59S 27°27' E 153°04'0 0.0
2019-Jul-21 04:29S 27°27' E 153°04'0 0.0
2019-Jul-21 03:59S 27°27' E 153°04'0 0.0
2019-Jul-21 03:29S 27°27' E 153°04'0 0.0
2019-Jul-21 02:59S 27°27' E 153°04'0 0.0
2019-Jul-21 02:29S 27°27' E 153°04'0 0.0
2019-Jul-21 01:59S 27°27' E 153°04'0 0.0
2019-Jul-21 01:29S 27°27' E 153°04'0 0.0
2019-Jul-21 00:59S 27°27' E 153°04'0 0.0
2019-Jul-21 00:29S 27°27' E 153°04'0 0.0
2019-Jul-20 23:59S 27°27' E 153°04'0 0.0
2019-Jul-20 23:29S 27°27' E 153°04'0 0.0
2019-Jul-20 22:59S 27°27' E 153°04'0 0.0
2019-Jul-20 22:23S 27°27' E 153°04'0 0.0
2019-Jul-20 21:59S 27°27' E 153°04'0 0.0
2019-Jul-20 21:29S 27°27' E 153°04'0 0.0
2019-Jul-20 20:59S 27°27' E 153°04'0 0.0
2019-Jul-20 20:29S 27°27' E 153°04'0 0.0
2019-Jul-20 19:56S 27°27' E 153°04'0 0.0
2019-Jul-20 19:29S 27°27' E 153°04'0 0.0
2019-Jul-20 18:56S 27°27' E 153°04'0 0.0
2019-Jul-20 18:29S 27°27' E 153°04'0 0.0
2019-Jul-20 17:59S 27°27' E 153°04'0 0.0
2019-Jul-20 17:29S 27°27' E 153°04'0 0.0
2019-Jul-20 16:59S 27°27' E 153°04'0 0.0
2019-Jul-20 16:29S 27°27' E 153°04'0 0.0
2019-Jul-20 15:59S 27°27' E 153°04'0 0.0
2019-Jul-20 15:29S 27°27' E 153°04'0 0.0
2019-Jul-20 14:59S 27°27' E 153°04'0 0.0
2019-Jul-20 14:29S 27°27' E 153°04'0 0.0
2019-Jul-20 13:56S 27°27' E 153°04'0 0.0
2019-Jul-20 13:29S 27°27' E 153°04'0 0.0
2019-Jul-20 12:59S 27°27' E 153°04'0 0.0
2019-Jul-20 12:29S 27°27' E 153°04'0 0.0
2019-Jul-20 11:59S 27°27' E 153°04'0 0.0
2019-Jul-20 11:29S 27°27' E 153°04'0 0.0
2019-Jul-20 10:59S 27°27' E 153°04'0 0.0
2019-Jul-20 10:29S 27°27' E 153°04'0 0.0
2019-Jul-20 09:59S 27°27' E 153°04'0 0.0
2019-Jul-20 09:29S 27°27' E 153°04'0 0.0
2019-Jul-20 08:59S 27°27' E 153°04'0 0.0
2019-Jul-20 08:29S 27°27' E 153°04'0 0.0
2019-Jul-20 07:56S 27°27' E 153°04'0 0.0
2019-Jul-20 07:29S 27°27' E 153°04'0 0.0
2019-Jul-20 06:59S 27°27' E 153°04'0 0.0
2019-Jul-20 06:29S 27°27' E 153°04'0 0.0
2019-Jul-20 05:59S 27°27' E 153°04'0 0.0
2019-Jul-20 05:29S 27°27' E 153°04'0 0.0
2019-Jul-20 04:59S 27°27' E 153°04'0 0.0
2019-Jul-20 04:29S 27°27' E 153°04'0 0.0
2019-Jul-20 03:59S 27°27' E 153°04'0 0.0
2019-Jul-20 03:29S 27°27' E 153°04'0 0.0
2019-Jul-20 02:59S 27°27' E 153°04'0 0.0
2019-Jul-20 02:29S 27°27' E 153°04'0 0.0
2019-Jul-20 01:59S 27°27' E 153°04'0 0.0
2019-Jul-20 01:29S 27°27' E 153°04'0 0.0
2019-Jul-20 00:59S 27°27' E 153°04'0 0.0
2019-Jul-20 00:29S 27°27' E 153°04'0 0.0
2019-Jul-19 23:59S 27°27' E 153°04'0 0.0
2019-Jul-19 23:29S 27°27' E 153°04'0 0.0
2019-Jul-19 22:56S 27°27' E 153°04'0 0.0
2019-Jul-19 22:29S 27°27' E 153°04'0 0.0
2019-Jul-19 21:59S 27°27' E 153°04'0 0.0
2019-Jul-19 21:29S 27°27' E 153°04'0 0.0
2019-Jul-19 20:59S 27°27' E 153°04'0 0.0
2019-Jul-19 20:29S 27°27' E 153°04'0 0.0
2019-Jul-19 19:59S 27°27' E 153°04'0 0.0
2019-Jul-19 19:29S 27°27' E 153°04'0 0.0
2019-Jul-19 18:59S 27°27' E 153°04'0 0.0
2019-Jul-19 18:29S 27°27' E 153°04'0 0.0
2019-Jul-19 17:59S 27°27' E 153°04'0 0.0
2019-Jul-19 17:29S 27°27' E 153°04'0 0.0
2019-Jul-19 16:59S 27°27' E 153°04'0 0.0
2019-Jul-19 16:29S 27°27' E 153°04'0 0.0
2019-Jul-19 15:59S 27°27' E 153°04'0 0.0
2019-Jul-19 15:29S 27°27' E 153°04'0 0.0
2019-Jul-19 14:59S 27°27' E 153°04'0 0.0
2019-Jul-19 14:29S 27°27' E 153°04'0 0.0
2019-Jul-19 13:59S 27°27' E 153°04'0 0.0
2019-Jul-19 13:29S 27°27' E 153°04'0 0.0
2019-Jul-19 12:59S 27°27' E 153°04'0 0.0
2019-Jul-19 12:29S 27°27' E 153°04'0 0.0
2019-Jul-19 11:59S 27°27' E 153°04'0 0.0
2019-Jul-19 11:29S 27°27' E 153°04'0 0.0
2019-Jul-19 10:59S 27°27' E 153°04'0 0.0
2019-Jul-19 10:29S 27°27' E 153°04'0 0.0
2019-Jul-19 09:59S 27°27' E 153°04'0 0.0
2019-Jul-19 09:29S 27°27' E 153°04'0 0.0
2019-Jul-19 08:59S 27°27' E 153°04'0 0.0
2019-Jul-19 08:29S 27°27' E 153°04'0 0.0
2019-Jul-19 07:59S 27°27' E 153°04'0 0.0
2019-Jul-19 07:29S 27°27' E 153°04'0 0.0
2019-Jul-19 06:59S 27°27' E 153°04'0 0.0
2019-Jul-19 06:29S 27°27' E 153°04'0 0.0
2019-Jul-19 05:56S 27°27' E 153°04'0 0.0
2019-Jul-19 05:29S 27°27' E 153°04'0 0.0
2019-Jul-19 04:59S 27°27' E 153°04'0 0.0
2019-Jul-19 04:29S 27°27' E 153°04'0 0.0
2019-Jul-19 03:59S 27°27' E 153°04'0 0.0
2019-Jul-19 03:29S 27°27' E 153°04'0 0.0
2019-Jul-19 02:59S 27°27' E 153°04'0 0.0
2019-Jul-19 02:29S 27°27' E 153°04'0 0.0
2019-Jul-19 01:29S 27°27' E 153°04'0 0.0
2019-Jul-19 00:59S 27°27' E 153°04'0 0.0
2019-Jul-19 00:29S 27°27' E 153°04'0 0.0
2019-Jul-18 23:59S 27°27' E 153°04'0 0.0
2019-Jul-18 23:29S 27°27' E 153°04'0 0.0
2019-Jul-18 22:56S 27°27' E 153°04'0 0.0
2019-Jul-18 22:29S 27°27' E 153°04'0 0.0
2019-Jul-18 21:56S 27°27' E 153°04'0 0.0
2019-Jul-18 21:26S 27°27' E 153°04'0 0.0
2019-Jul-18 20:59S 27°27' E 153°04'0 0.0
2019-Jul-18 20:29S 27°27' E 153°04'0 0.0
2019-Jul-18 19:59S 27°27' E 153°04'0 0.0
2019-Jul-18 19:29S 27°27' E 153°04'0 0.0
2019-Jul-18 18:59S 27°27' E 153°04'0 0.0
2019-Jul-18 18:29S 27°27' E 153°04'0 0.0
2019-Jul-18 17:59S 27°27' E 153°04'0 0.0
2019-Jul-18 17:29S 27°27' E 153°04'0 0.0
2019-Jul-18 16:59S 27°27' E 153°04'0 0.0
2019-Jul-18 16:29S 27°27' E 153°04'0 0.0
2019-Jul-18 15:59S 27°27' E 153°04'0 0.0
2019-Jul-18 15:29S 27°27' E 153°04'0 0.0
2019-Jul-18 14:56S 27°27' E 153°04'0 0.0
2019-Jul-18 14:29S 27°27' E 153°04'0 0.0
2019-Jul-18 13:59S 27°27' E 153°04'0 0.0
2019-Jul-18 13:29S 27°27' E 153°04'0 0.0
2019-Jul-18 12:59S 27°27' E 153°04'0 0.0
2019-Jul-18 12:29S 27°27' E 153°04'0 0.0
2019-Jul-18 11:59S 27°27' E 153°04'0 0.0
2019-Jul-18 11:29S 27°27' E 153°04'0 0.0
2019-Jul-18 10:59S 27°27' E 153°04'0 0.0
2019-Jul-18 10:29S 27°27' E 153°04'0 0.0
2019-Jul-18 09:59S 27°27' E 153°04'0 0.0
2019-Jul-18 09:29S 27°27' E 153°04'333913283.1
2019-Jul-18 09:14N 01°15' E 104°07'210.7
2019-Jul-18 09:00N 01°15' E 104°04'3341116773.1
2019-Jul-18 08:59S 27°27' E 153°04'33457096.1
2019-Jul-18 08:30N 01°14' E 103°59'3345116912.8
2019-Jul-18 08:29S 27°27' E 153°04'33487106.1
2019-Jul-18 08:00N 01°12' E 103°54'3348115884.7
2019-Jul-18 07:59S 27°27' E 153°04'33517150.9
2019-Jul-18 07:31N 01°11' E 103°50'3351106756.6
2019-Jul-18 07:29S 27°27' E 153°04'33536757.7
2019-Jul-18 06:59N 01°13' E 103°49'3353928403.1
2019-Jul-18 06:59S 27°27' E 153°04'33536816.2
2019-Jul-18 06:29N 01°13' E 103°49'3353402382.8
2019-Jul-18 06:29S 27°27' E 153°04'0 0.0
2019-Jul-18 05:59S 27°27' E 153°04'335929493.1
2019-Jul-18 05:52N 01°17' E 103°44'33598705.7
2019-Jul-18 05:29S 27°27' E 153°04'0 0.0
2019-Jul-18 04:59S 27°27' E 153°04'0 0.0
2019-Jul-18 04:29S 27°27' E 153°04'0 0.0
2019-Jul-18 03:59S 27°27' E 153°04'0 0.0
2019-Jul-18 03:30S 27°27' E 153°04'1 1.3
2019-Jul-18 03:00S 27°27' E 153°05'2 4.7
2019-Jul-18 02:30S 27°26' E 153°07'1 2.4
2019-Jul-18 02:00S 27°25' E 153°08'3 5.1
2019-Jul-18 01:30S 27°23' E 153°10'2 3.9
2019-Jul-18 01:00S 27°21' E 153°11'3 5.0
2019-Jul-18 00:30S 27°19' E 153°12'3 5.4
2019-Jul-18 00:00S 27°17' E 153°14'3 5.8
2019-Jul-17 23:30S 27°16' E 153°17'3 5.2
2019-Jul-17 23:00S 27°14' E 153°20'3 5.3
2019-Jul-17 22:30S 27°12' E 153°21'2 3.1
2019-Jul-17 21:57S 27°11' E 153°22'0 0.0
2019-Jul-17 21:30S 27°11' E 153°22'0 0.0
2019-Jul-17 21:00S 27°11' E 153°22'0 0.0
2019-Jul-17 20:21S 27°11' E 153°22'0 0.0
2019-Jul-17 19:54S 27°11' E 153°22'0 0.0
2019-Jul-17 19:21S 27°11' E 153°22'0 0.0
2019-Jul-17 19:00S 27°11' E 153°22'0 0.0
2019-Jul-17 18:24S 27°11' E 153°22'0 0.0
2019-Jul-17 18:00S 27°11' E 153°22'0 0.0
2019-Jul-17 17:21S 27°11' E 153°22'0 0.0
2019-Jul-17 16:54S 27°11' E 153°22'0 0.0
2019-Jul-17 16:30S 27°11' E 153°22'0 0.0
2019-Jul-17 15:57S 27°11' E 153°22'0 0.0
2019-Jul-17 15:30S 27°11' E 153°22'0 0.0
2019-Jul-17 14:57S 27°11' E 153°22'0 0.0
2019-Jul-17 14:30S 27°11' E 153°22'0 0.0
2019-Jul-17 14:00S 27°11' E 153°22'0 0.0
2019-Jul-17 13:30S 27°11' E 153°22'0 0.0
2019-Jul-17 13:00S 27°11' E 153°22'0 0.0
2019-Jul-17 12:30S 27°11' E 153°22'0 0.0
2019-Jul-17 11:57S 27°11' E 153°22'0 0.0
2019-Jul-17 11:24S 27°11' E 153°22'336812670.7
2019-Jul-17 11:08N 01°18' E 103°44'336811853.2
2019-Jul-17 10:51S 27°11' E 153°22'0 0.0
2019-Jul-17 10:30S 27°11' E 153°22'0 0.0
2019-Jul-17 10:00S 27°11' E 153°22'0 0.0
2019-Jul-17 09:24S 27°11' E 153°22'0 0.0
2019-Jul-17 09:00S 27°11' E 153°22'0 0.0
2019-Jul-17 08:30S 27°11' E 153°22'0 0.0
2019-Jul-17 08:00S 27°11' E 153°22'33688105.5
2019-Jul-17 07:35N 01°18' E 103°44'336825105.2
2019-Jul-17 07:27S 27°11' E 153°22'336812723.9
2019-Jul-17 07:11N 01°18' E 103°44'336818179.7
2019-Jul-17 07:00S 27°11' E 153°22'0 0.0
2019-Jul-17 06:30S 27°11' E 153°22'0 0.0
2019-Jul-17 06:00S 27°11' E 153°22'0 0.0
2019-Jul-17 05:24S 27°11' E 153°22'0 0.0
2019-Jul-17 04:42S 27°11' E 153°22'0 0.0
2019-Jul-17 04:30S 27°11' E 153°22'0 0.0
2019-Jul-17 04:00S 27°11' E 153°22'0 0.0
2019-Jul-17 03:27S 27°11' E 153°22'0 0.0
2019-Jul-17 02:57S 27°11' E 153°22'0 0.4
2019-Jul-17 02:31S 27°11' E 153°22'1 2.8
2019-Jul-17 02:01S 27°11' E 153°21'3 5.5
2019-Jul-17 01:31S 27°08' E 153°21'3 5.9
2019-Jul-17 00:59S 27°06' E 153°19'3 5.8
2019-Jul-17 00:29S 27°03' E 153°17'3 6.2
2019-Jul-17 00:00S 27°01' E 153°15'4 7.0
2019-Jul-16 23:30S 26°58' E 153°13'33557307.0
2019-Jul-16 23:02N 01°18' E 103°44'0 0.0
2019-Jul-16 22:59N 01°18' E 103°44'335121128.1
2019-Jul-16 22:50S 26°54' E 153°10'33511529.2
2019-Jul-16 20:38N 01°18' E 103°44'  
Track history (hours):
 
Tides and Currents Weather Stations Pressure Air Temp Water Temp Dewpoint Dewpoint Depression Visibility Wind Speed Wind Dir Waves Ship Positions

Young Endeavour (Australia)

Ship's website: http://www.youngendeavour.gov.au/

Last reported at 2019-Jul-26 11:49 UTC. Time now 2019-Aug-20 09:36 UTC.
Position S 33°06' E 152°04'.
Warning: this ship's position is 24 days out of date.

Length 44 m; beam 7.8 m; draft 4 m.

Type: Other ship. MMSI: 503000136.

Date/timePositionNaut miles runAvg speedWind from/ knotsBaromVisibWave heightAir tempDewpointWater temp
2019-Jul-26 11:49S 33°06' E 152°04'2 5.8
2019-Jul-26 11:29S 33°05' E 152°05'3 5.7
2019-Jul-26 10:58S 33°03' E 152°08'2 4.8
2019-Jul-26 10:29S 33°01' E 152°09'2 5.0
2019-Jul-26 10:00S 32°59' E 152°11'3 5.0
2019-Jul-26 09:30S 32°56' E 152°12'2 4.7
2019-Jul-26 09:00S 32°54' E 152°13'3 5.2
2019-Jul-26 08:31S 32°52' E 152°13'3 5.2
2019-Jul-26 08:01S 32°49' E 152°13'3 5.2
2019-Jul-26 07:31S 32°46' E 152°13'3 5.3
2019-Jul-26 07:01S 32°44' E 152°13'2 4.4
2019-Jul-26 06:30S 32°42' E 152°11'1 1.7
2019-Jul-26 06:00S 32°43' E 152°10'0 0.0
2019-Jul-26 05:30S 32°43' E 152°10'0 0.0
2019-Jul-26 05:00S 32°43' E 152°10'0 0.0
2019-Jul-26 04:30S 32°43' E 152°10'0 0.1
2019-Jul-26 04:00S 32°43' E 152°10'0 0.0
2019-Jul-26 03:30S 32°43' E 152°10'0 0.1
2019-Jul-26 03:00S 32°43' E 152°10'0 0.0
2019-Jul-26 02:00S 32°43' E 152°10'0 0.0
2019-Jul-26 01:27S 32°43' E 152°10'0 0.0
2019-Jul-26 01:00S 32°43' E 152°10'0 0.1
2019-Jul-26 00:31S 32°43' E 152°10'0 0.1
2019-Jul-26 00:01S 32°43' E 152°10'0 0.0
2019-Jul-25 23:31S 32°43' E 152°10'0 0.0
2019-Jul-25 23:00S 32°43' E 152°10'1 2.1
2019-Jul-25 22:28S 32°43' E 152°09'0 0.0
2019-Jul-25 21:58S 32°43' E 152°09'0 0.0
2019-Jul-25 21:28S 32°43' E 152°09'0 0.0
2019-Jul-25 20:58S 32°43' E 152°09'0 0.0
2019-Jul-25 20:28S 32°43' E 152°09'0 0.0
2019-Jul-25 19:58S 32°43' E 152°09'0 0.0
2019-Jul-25 19:28S 32°43' E 152°09'0 0.0
2019-Jul-25 18:58S 32°43' E 152°09'0 0.0
2019-Jul-25 18:28S 32°43' E 152°09'0 0.0
2019-Jul-25 17:58S 32°43' E 152°09'0 0.1
2019-Jul-25 17:28S 32°43' E 152°09'0 0.0
2019-Jul-25 16:58S 32°43' E 152°09'0 0.0
2019-Jul-25 16:28S 32°43' E 152°09'0 0.0
2019-Jul-25 15:58S 32°43' E 152°09'0 0.0
2019-Jul-25 15:28S 32°43' E 152°09'0 0.0
2019-Jul-25 14:58S 32°43' E 152°09'0 0.0
2019-Jul-25 14:28S 32°43' E 152°09'0 0.0
2019-Jul-25 13:58S 32°43' E 152°09'0 0.0
2019-Jul-25 13:28S 32°43' E 152°09'0 0.0
2019-Jul-25 12:58S 32°43' E 152°09'0 0.0
2019-Jul-25 12:28S 32°43' E 152°09'0 0.0
2019-Jul-25 11:58S 32°43' E 152°09'0 0.0
2019-Jul-25 11:28S 32°43' E 152°09'0 0.1
2019-Jul-25 10:55S 32°43' E 152°09'0 0.0
2019-Jul-25 10:28S 32°43' E 152°09'0 0.0
2019-Jul-25 10:00S 32°43' E 152°09'0 0.0
2019-Jul-25 09:30S 32°43' E 152°09'0 0.0
2019-Jul-25 09:00S 32°43' E 152°09'0 0.0
2019-Jul-25 08:30S 32°43' E 152°09'2 4.5
2019-Jul-25 08:00S 32°42' E 152°11'3 6.8
2019-Jul-25 07:30S 32°41' E 152°15'4 7.4
2019-Jul-25 07:00S 32°40' E 152°19'4 7.1
2019-Jul-25 06:30S 32°38' E 152°23'4 7.5
2019-Jul-25 06:00S 32°35' E 152°26'4 7.0
2019-Jul-25 05:26S 32°33' E 152°29'231 6.7
2019-Jul-23 18:40S 28°51' E 153°44'2 9.2
2019-Jul-23 18:30S 28°49' E 153°44'5 8.9
2019-Jul-23 17:54S 28°44' E 153°45'4 8.6
2019-Jul-23 17:26S 28°40' E 153°45'48 8.2
2019-Jul-23 11:32S 27°51' E 153°47'1 8.8
2019-Jul-23 11:28S 27°51' E 153°46'4 8.3
2019-Jul-23 11:00S 27°47' E 153°45'4 8.3
2019-Jul-23 10:30S 27°44' E 153°43'4 8.2
2019-Jul-23 10:00S 27°40' E 153°41'4 8.7
2019-Jul-23 09:30S 27°35' E 153°41'5 9.8
2019-Jul-23 09:00S 27°31' E 153°40'5 9.5
2019-Jul-23 08:30S 27°26' E 153°39'5 9.5
2019-Jul-23 08:00S 27°22' E 153°37'5 9.3
2019-Jul-23 07:30S 27°17' E 153°35'4 9.0
2019-Jul-23 07:00S 27°13' E 153°33'4 8.9
2019-Jul-23 06:30S 27°09' E 153°31'4 8.7
2019-Jul-23 06:01S 27°05' E 153°30'4 7.9
2019-Jul-23 05:27S 27°01' E 153°28'7 3.6
2019-Jul-23 03:38S 27°04' E 153°22'1 6.7
2019-Jul-23 03:30S 27°05' E 153°22'3 6.5
2019-Jul-23 03:00S 27°09' E 153°21'2 2.3
2019-Jul-23 01:58S 27°11' E 153°22'0 0.0
2019-Jul-23 01:16S 27°11' E 153°22'0 0.0
2019-Jul-23 00:58S 27°11' E 153°22'0 0.1
2019-Jul-23 00:28S 27°11' E 153°22'0 0.1
2019-Jul-22 23:58S 27°11' E 153°22'0 0.0
2019-Jul-22 23:25S 27°11' E 153°22'0 0.1
2019-Jul-22 22:52S 27°11' E 153°22'0 0.0
2019-Jul-22 22:16S 27°11' E 153°22'0 0.2
2019-Jul-22 21:58S 27°11' E 153°22'0 0.0
2019-Jul-22 21:28S 27°11' E 153°22'0 0.0
2019-Jul-22 20:58S 27°11' E 153°22'0 0.0
2019-Jul-22 20:28S 27°11' E 153°22'0 0.0
2019-Jul-22 19:58S 27°11' E 153°22'0 0.1
2019-Jul-22 19:28S 27°11' E 153°22'0 0.0
2019-Jul-22 18:58S 27°11' E 153°22'0 0.0
2019-Jul-22 18:28S 27°11' E 153°22'0 0.0
2019-Jul-22 17:55S 27°11' E 153°22'0 0.1
2019-Jul-22 17:28S 27°11' E 153°22'0 0.0
2019-Jul-22 16:58S 27°11' E 153°22'0 0.0
2019-Jul-22 16:28S 27°11' E 153°22'0 0.0
2019-Jul-22 15:58S 27°11' E 153°22'0 0.0
2019-Jul-22 15:28S 27°11' E 153°22'0 0.1
2019-Jul-22 14:58S 27°11' E 153°22'0 0.0
2019-Jul-22 14:28S 27°11' E 153°22'0 0.1
2019-Jul-22 13:49S 27°11' E 153°22'0 0.0
2019-Jul-22 13:28S 27°11' E 153°22'0 0.0
2019-Jul-22 12:58S 27°11' E 153°22'0 0.0
2019-Jul-22 12:28S 27°11' E 153°22'0 0.0
2019-Jul-22 11:58S 27°11' E 153°22'0 0.0
2019-Jul-22 11:28S 27°11' E 153°22'0 0.0
2019-Jul-22 11:01S 27°11' E 153°22'0 0.0
2019-Jul-22 10:31S 27°11' E 153°22'0 0.0
2019-Jul-22 10:01S 27°11' E 153°22'1 2.9
2019-Jul-22 09:30S 27°12' E 153°21'3 5.2
2019-Jul-22 09:01S 27°14' E 153°20'3 6.8
2019-Jul-22 08:31S 27°16' E 153°17'3 6.8
2019-Jul-22 08:01S 27°18' E 153°13'4 7.1
2019-Jul-22 07:31S 27°21' E 153°11'3 6.5
2019-Jul-22 07:01S 27°23' E 153°09'3 6.2
2019-Jul-22 06:30S 27°26' E 153°07'3 5.6
2019-Jul-22 06:00S 27°27' E 153°04'0 0.1
2019-Jul-22 05:29S 27°27' E 153°04'0 0.0
2019-Jul-22 04:59S 27°27' E 153°04'0 0.0
2019-Jul-22 04:29S 27°27' E 153°04'0 0.0
2019-Jul-22 03:59S 27°27' E 153°04'0 0.0
2019-Jul-22 03:29S 27°27' E 153°04'0 0.0
2019-Jul-22 02:59S 27°27' E 153°04'0 0.0
2019-Jul-22 02:29S 27°27' E 153°04'0 0.0
2019-Jul-22 01:59S 27°27' E 153°04'0 0.0
2019-Jul-22 01:29S 27°27' E 153°04'0 0.0
2019-Jul-22 00:59S 27°27' E 153°04'0 0.0
2019-Jul-22 00:29S 27°27' E 153°04'0 0.0
2019-Jul-21 23:59S 27°27' E 153°04'0 0.0
2019-Jul-21 23:29S 27°27' E 153°04'0 0.0
2019-Jul-21 22:59S 27°27' E 153°04'0 0.0
2019-Jul-21 22:29S 27°27' E 153°04'0 0.0
2019-Jul-21 21:59S 27°27' E 153°04'0 0.0
2019-Jul-21 21:29S 27°27' E 153°04'0 0.0
2019-Jul-21 20:59S 27°27' E 153°04'0 0.0
2019-Jul-21 20:29S 27°27' E 153°04'0 0.0
2019-Jul-21 19:59S 27°27' E 153°04'0 0.0
2019-Jul-21 19:29S 27°27' E 153°04'0 0.0
2019-Jul-21 18:59S 27°27' E 153°04'0 0.0
2019-Jul-21 18:29S 27°27' E 153°04'0 0.0
2019-Jul-21 17:59S 27°27' E 153°04'0 0.0
2019-Jul-21 17:29S 27°27' E 153°04'0 0.0
2019-Jul-21 16:59S 27°27' E 153°04'0 0.0
2019-Jul-21 16:29S 27°27' E 153°04'0 0.0
2019-Jul-21 15:59S 27°27' E 153°04'0 0.0
2019-Jul-21 15:29S 27°27' E 153°04'0 0.0
2019-Jul-21 14:59S 27°27' E 153°04'0 0.0
2019-Jul-21 14:29S 27°27' E 153°04'0 0.0
2019-Jul-21 13:59S 27°27' E 153°04'0 0.0
2019-Jul-21 13:29S 27°27' E 153°04'0 0.0
2019-Jul-21 12:59S 27°27' E 153°04'0 0.0
2019-Jul-21 12:29S 27°27' E 153°04'0 0.0
2019-Jul-21 11:59S 27°27' E 153°04'0 0.0
2019-Jul-21 11:29S 27°27' E 153°04'0 0.0
2019-Jul-21 10:59S 27°27' E 153°04'0 0.0
2019-Jul-21 10:29S 27°27' E 153°04'0 0.0
2019-Jul-21 09:59S 27°27' E 153°04'0 0.0
2019-Jul-21 09:29S 27°27' E 153°04'0 0.0
2019-Jul-21 08:59S 27°27' E 153°04'0 0.0
2019-Jul-21 08:29S 27°27' E 153°04'0 0.0
2019-Jul-21 07:59S 27°27' E 153°04'0 0.0
2019-Jul-21 07:29S 27°27' E 153°04'0 0.0
2019-Jul-21 06:59S 27°27' E 153°04'0 0.0
2019-Jul-21 06:29S 27°27' E 153°04'0 0.0
2019-Jul-21 05:59S 27°27' E 153°04'0 0.0
2019-Jul-21 05:29S 27°27' E 153°04'0 0.0
2019-Jul-21 04:59S 27°27' E 153°04'0 0.0
2019-Jul-21 04:29S 27°27' E 153°04'0 0.0
2019-Jul-21 03:59S 27°27' E 153°04'0 0.0
2019-Jul-21 03:29S 27°27' E 153°04'0 0.0
2019-Jul-21 02:59S 27°27' E 153°04'0 0.0
2019-Jul-21 02:29S 27°27' E 153°04'0 0.0
2019-Jul-21 01:59S 27°27' E 153°04'0 0.0
2019-Jul-21 01:29S 27°27' E 153°04'0 0.0
2019-Jul-21 00:59S 27°27' E 153°04'0 0.0
2019-Jul-21 00:29S 27°27' E 153°04'0 0.0
2019-Jul-20 23:59S 27°27' E 153°04'0 0.0
2019-Jul-20 23:29S 27°27' E 153°04'0 0.0
2019-Jul-20 22:59S 27°27' E 153°04'0 0.0
2019-Jul-20 22:23S 27°27' E 153°04'0 0.0
2019-Jul-20 21:59S 27°27' E 153°04'0 0.0
2019-Jul-20 21:29S 27°27' E 153°04'0 0.0
2019-Jul-20 20:59S 27°27' E 153°04'0 0.0
2019-Jul-20 20:29S 27°27' E 153°04'0 0.0
2019-Jul-20 19:56S 27°27' E 153°04'0 0.0
2019-Jul-20 19:29S 27°27' E 153°04'0 0.0
2019-Jul-20 18:56S 27°27' E 153°04'0 0.0
2019-Jul-20 18:29S 27°27' E 153°04'0 0.0
2019-Jul-20 17:59S 27°27' E 153°04'0 0.0
2019-Jul-20 17:29S 27°27' E 153°04'0 0.0
2019-Jul-20 16:59S 27°27' E 153°04'0 0.0
2019-Jul-20 16:29S 27°27' E 153°04'0 0.0
2019-Jul-20 15:59S 27°27' E 153°04'0 0.0
2019-Jul-20 15:29S 27°27' E 153°04'0 0.0
2019-Jul-20 14:59S 27°27' E 153°04'0 0.0
2019-Jul-20 14:29S 27°27' E 153°04'0 0.0
2019-Jul-20 13:56S 27°27' E 153°04'0 0.0
2019-Jul-20 13:29S 27°27' E 153°04'0 0.0
2019-Jul-20 12:59S 27°27' E 153°04'0 0.0
2019-Jul-20 12:29S 27°27' E 153°04'0 0.0
2019-Jul-20 11:59S 27°27' E 153°04'0 0.0
2019-Jul-20 11:29S 27°27' E 153°04'0 0.0
2019-Jul-20 10:59S 27°27' E 153°04'0 0.0
2019-Jul-20 10:29S 27°27' E 153°04'0 0.0
2019-Jul-20 09:59S 27°27' E 153°04'0 0.0
2019-Jul-20 09:29S 27°27' E 153°04'0 0.0
2019-Jul-20 08:59S 27°27' E 153°04'0 0.0
2019-Jul-20 08:29S 27°27' E 153°04'0 0.0
2019-Jul-20 07:56S 27°27' E 153°04'0 0.0
2019-Jul-20 07:29S 27°27' E 153°04'0 0.0
2019-Jul-20 06:59S 27°27' E 153°04'0 0.0
2019-Jul-20 06:29S 27°27' E 153°04'0 0.0
2019-Jul-20 05:59S 27°27' E 153°04'0 0.0
2019-Jul-20 05:29S 27°27' E 153°04'0 0.0
2019-Jul-20 04:59S 27°27' E 153°04'0 0.0
2019-Jul-20 04:29S 27°27' E 153°04'0 0.0
2019-Jul-20 03:59S 27°27' E 153°04'0 0.0
2019-Jul-20 03:29S 27°27' E 153°04'0 0.0
2019-Jul-20 02:59S 27°27' E 153°04'0 0.0
2019-Jul-20 02:29S 27°27' E 153°04'0 0.0
2019-Jul-20 01:59S 27°27' E 153°04'0 0.0
2019-Jul-20 01:29S 27°27' E 153°04'0 0.0
2019-Jul-20 00:59S 27°27' E 153°04'0 0.0
2019-Jul-20 00:29S 27°27' E 153°04'0 0.0
2019-Jul-19 23:59S 27°27' E 153°04'0 0.0
2019-Jul-19 23:29S 27°27' E 153°04'0 0.0
2019-Jul-19 22:56S 27°27' E 153°04'0 0.0
2019-Jul-19 22:29S 27°27' E 153°04'0 0.0
2019-Jul-19 21:59S 27°27' E 153°04'0 0.0
2019-Jul-19 21:29S 27°27' E 153°04'0 0.0
2019-Jul-19 20:59S 27°27' E 153°04'0 0.0
2019-Jul-19 20:29S 27°27' E 153°04'0 0.0
2019-Jul-19 19:59S 27°27' E 153°04'0 0.0
2019-Jul-19 19:29S 27°27' E 153°04'0 0.0
2019-Jul-19 18:59S 27°27' E 153°04'0 0.0
2019-Jul-19 18:29S 27°27' E 153°04'0 0.0
2019-Jul-19 17:59S 27°27' E 153°04'0 0.0
2019-Jul-19 17:29S 27°27' E 153°04'0 0.0
2019-Jul-19 16:59S 27°27' E 153°04'0 0.0
2019-Jul-19 16:29S 27°27' E 153°04'0 0.0
2019-Jul-19 15:59S 27°27' E 153°04'0 0.0
2019-Jul-19 15:29S 27°27' E 153°04'0 0.0
2019-Jul-19 14:59S 27°27' E 153°04'0 0.0
2019-Jul-19 14:29S 27°27' E 153°04'0 0.0
2019-Jul-19 13:59S 27°27' E 153°04'0 0.0
2019-Jul-19 13:29S 27°27' E 153°04'0 0.0
2019-Jul-19 12:59S 27°27' E 153°04'0 0.0
2019-Jul-19 12:29S 27°27' E 153°04'0 0.0
2019-Jul-19 11:59S 27°27' E 153°04'0 0.0
2019-Jul-19 11:29S 27°27' E 153°04'0 0.0
2019-Jul-19 10:59S 27°27' E 153°04'0 0.0
2019-Jul-19 10:29S 27°27' E 153°04'0 0.0
2019-Jul-19 09:59S 27°27' E 153°04'0 0.0
2019-Jul-19 09:29S 27°27' E 153°04'0 0.0
2019-Jul-19 08:59S 27°27' E 153°04'0 0.0
2019-Jul-19 08:29S 27°27' E 153°04'0 0.0
2019-Jul-19 07:59S 27°27' E 153°04'0 0.0
2019-Jul-19 07:29S 27°27' E 153°04'0 0.0
2019-Jul-19 06:59S 27°27' E 153°04'0 0.0
2019-Jul-19 06:29S 27°27' E 153°04'0 0.0
2019-Jul-19 05:56S 27°27' E 153°04'0 0.0
2019-Jul-19 05:29S 27°27' E 153°04'0 0.0
2019-Jul-19 04:59S 27°27' E 153°04'0 0.0
2019-Jul-19 04:29S 27°27' E 153°04'0 0.0
2019-Jul-19 03:59S 27°27' E 153°04'0 0.0
2019-Jul-19 03:29S 27°27' E 153°04'0 0.0
2019-Jul-19 02:59S 27°27' E 153°04'0 0.0
2019-Jul-19 02:29S 27°27' E 153°04'0 0.0
2019-Jul-19 01:29S 27°27' E 153°04'0 0.0
2019-Jul-19 00:59S 27°27' E 153°04'0 0.0
2019-Jul-19 00:29S 27°27' E 153°04'0 0.0
2019-Jul-18 23:59S 27°27' E 153°04'0 0.0
2019-Jul-18 23:29S 27°27' E 153°04'0 0.0
2019-Jul-18 22:56S 27°27' E 153°04'0 0.0
2019-Jul-18 22:29S 27°27' E 153°04'0 0.0
2019-Jul-18 21:56S 27°27' E 153°04'0 0.0
2019-Jul-18 21:26S 27°27' E 153°04'0 0.0
2019-Jul-18 20:59S 27°27' E 153°04'0 0.0
2019-Jul-18 20:29S 27°27' E 153°04'0 0.0
2019-Jul-18 19:59S 27°27' E 153°04'0 0.0
2019-Jul-18 19:29S 27°27' E 153°04'0 0.0
2019-Jul-18 18:59S 27°27' E 153°04'0 0.0
2019-Jul-18 18:29S 27°27' E 153°04'0 0.0
2019-Jul-18 17:59S 27°27' E 153°04'0 0.0
2019-Jul-18 17:29S 27°27' E 153°04'0 0.0
2019-Jul-18 16:59S 27°27' E 153°04'0 0.0
2019-Jul-18 16:29S 27°27' E 153°04'0 0.0
2019-Jul-18 15:59S 27°27' E 153°04'0 0.0
2019-Jul-18 15:29S 27°27' E 153°04'0 0.0
2019-Jul-18 14:56S 27°27' E 153°04'0 0.0
2019-Jul-18 14:29S 27°27' E 153°04'0 0.0
2019-Jul-18 13:59S 27°27' E 153°04'0 0.0
2019-Jul-18 13:29S 27°27' E 153°04'0 0.0
2019-Jul-18 12:59S 27°27' E 153°04'0 0.0
2019-Jul-18 12:29S 27°27' E 153°04'0 0.0
2019-Jul-18 11:59S 27°27' E 153°04'0 0.0
2019-Jul-18 11:29S 27°27' E 153°04'0 0.0
2019-Jul-18 10:59S 27°27' E 153°04'0 0.0
2019-Jul-18 10:29S 27°27' E 153°04'0 0.0
2019-Jul-18 09:59S 27°27' E 153°04'0 0.0
2019-Jul-18 09:29S 27°27' E 153°04'333913283.1
2019-Jul-18 09:14N 01°15' E 104°07'210.7
2019-Jul-18 09:00N 01°15' E 104°04'3341116773.1
2019-Jul-18 08:59S 27°27' E 153°04'33457096.1
2019-Jul-18 08:30N 01°14' E 103°59'3345116912.8
2019-Jul-18 08:29S 27°27' E 153°04'33487106.1
2019-Jul-18 08:00N 01°12' E 103°54'3348115884.7
2019-Jul-18 07:59S 27°27' E 153°04'33517150.9
2019-Jul-18 07:31N 01°11' E 103°50'3351106756.6
2019-Jul-18 07:29S 27°27' E 153°04'33536757.7
2019-Jul-18 06:59N 01°13' E 103°49'3353928403.1
2019-Jul-18 06:59S 27°27' E 153°04'33536816.2
2019-Jul-18 06:29N 01°13' E 103°49'3353402382.8
2019-Jul-18 06:29S 27°27' E 153°04'0 0.0
2019-Jul-18 05:59S 27°27' E 153°04'335929493.1
2019-Jul-18 05:52N 01°17' E 103°44'33598705.7
2019-Jul-18 05:29S 27°27' E 153°04'0 0.0
2019-Jul-18 04:59S 27°27' E 153°04'0 0.0
2019-Jul-18 04:29S 27°27' E 153°04'0 0.0
2019-Jul-18 03:59S 27°27' E 153°04'0 0.0
2019-Jul-18 03:30S 27°27' E 153°04'1 1.3
2019-Jul-18 03:00S 27°27' E 153°05'2 4.7
2019-Jul-18 02:30S 27°26' E 153°07'1 2.4
2019-Jul-18 02:00S 27°25' E 153°08'3 5.1
2019-Jul-18 01:30S 27°23' E 153°10'2 3.9
2019-Jul-18 01:00S 27°21' E 153°11'3 5.0
2019-Jul-18 00:30S 27°19' E 153°12'3 5.4
2019-Jul-18 00:00S 27°17' E 153°14'3 5.8
2019-Jul-17 23:30S 27°16' E 153°17'3 5.2
2019-Jul-17 23:00S 27°14' E 153°20'3 5.3
2019-Jul-17 22:30S 27°12' E 153°21'2 3.1
2019-Jul-17 21:57S 27°11' E 153°22'0 0.0
2019-Jul-17 21:30S 27°11' E 153°22'0 0.0
2019-Jul-17 21:00S 27°11' E 153°22'0 0.0
2019-Jul-17 20:21S 27°11' E 153°22'0 0.0
2019-Jul-17 19:54S 27°11' E 153°22'0 0.0
2019-Jul-17 19:21S 27°11' E 153°22'0 0.0
2019-Jul-17 19:00S 27°11' E 153°22'0 0.0
2019-Jul-17 18:24S 27°11' E 153°22'0 0.0
2019-Jul-17 18:00S 27°11' E 153°22'0 0.0
2019-Jul-17 17:21S 27°11' E 153°22'0 0.0
2019-Jul-17 16:54S 27°11' E 153°22'0 0.0
2019-Jul-17 16:30S 27°11' E 153°22'0 0.0
2019-Jul-17 15:57S 27°11' E 153°22'0 0.0
2019-Jul-17 15:30S 27°11' E 153°22'0 0.0
2019-Jul-17 14:57S 27°11' E 153°22'0 0.0
2019-Jul-17 14:30S 27°11' E 153°22'0 0.0
2019-Jul-17 14:00S 27°11' E 153°22'0 0.0
2019-Jul-17 13:30S 27°11' E 153°22'0 0.0
2019-Jul-17 13:00S 27°11' E 153°22'0 0.0
2019-Jul-17 12:30S 27°11' E 153°22'0 0.0
2019-Jul-17 11:57S 27°11' E 153°22'0 0.0
2019-Jul-17 11:24S 27°11' E 153°22'336812670.7
2019-Jul-17 11:08N 01°18' E 103°44'336811853.2
2019-Jul-17 10:51S 27°11' E 153°22'0 0.0
2019-Jul-17 10:30S 27°11' E 153°22'0 0.0
2019-Jul-17 10:00S 27°11' E 153°22'0 0.0
2019-Jul-17 09:24S 27°11' E 153°22'0 0.0
2019-Jul-17 09:00S 27°11' E 153°22'0 0.0
2019-Jul-17 08:30S 27°11' E 153°22'0 0.0
2019-Jul-17 08:00S 27°11' E 153°22'33688105.5
2019-Jul-17 07:35N 01°18' E 103°44'336825105.2
2019-Jul-17 07:27S 27°11' E 153°22'336812723.9
2019-Jul-17 07:11N 01°18' E 103°44'336818179.7
2019-Jul-17 07:00S 27°11' E 153°22'0 0.0
2019-Jul-17 06:30S 27°11' E 153°22'0 0.0
2019-Jul-17 06:00S 27°11' E 153°22'0 0.0
2019-Jul-17 05:24S 27°11' E 153°22'0 0.0
2019-Jul-17 04:42S 27°11' E 153°22'0 0.0
2019-Jul-17 04:30S 27°11' E 153°22'0 0.0
2019-Jul-17 04:00S 27°11' E 153°22'0 0.0
2019-Jul-17 03:27S 27°11' E 153°22'0 0.0
2019-Jul-17 02:57S 27°11' E 153°22'0 0.4
2019-Jul-17 02:31S 27°11' E 153°22'1 2.8
2019-Jul-17 02:01S 27°11' E 153°21'3 5.5
2019-Jul-17 01:31S 27°08' E 153°21'3 5.9
2019-Jul-17 00:59S 27°06' E 153°19'3 5.8
2019-Jul-17 00:29S 27°03' E 153°17'3 6.2
2019-Jul-17 00:00S 27°01' E 153°15'4 7.0
2019-Jul-16 23:30S 26°58' E 153°13'33557307.0
2019-Jul-16 23:02N 01°18' E 103°44'0 0.0
2019-Jul-16 22:59N 01°18' E 103°44'335121128.1
2019-Jul-16 22:50S 26°54' E 153°10'33511529.2
2019-Jul-16 20:38N 01°18' E 103°44'  

Dump ship's entire track history